createdAt,value
2018-07-10T17:12:14.835Z,56.70
2018-07-10T17:14:56.439Z,36.90
2018-07-10T17:17:26.492Z,38.30
2018-07-10T17:20:14.713Z,39.60
2018-07-10T17:25:16.062Z,42.00
2018-07-10T17:27:49.245Z,43.30
2018-07-10T17:30:19.544Z,44.80
2018-07-10T17:32:49.420Z,46.20
2018-07-10T17:35:19.428Z,47.40
2018-07-10T17:37:52.316Z,48.60
2018-07-10T17:42:51.585Z,50.60
2018-07-10T17:45:24.434Z,51.40
2018-07-10T17:47:58.994Z,52.10
2018-07-10T17:50:29.096Z,52.70
2018-07-10T17:53:00.182Z,53.30
2018-07-10T17:55:30.403Z,53.70
2018-07-10T18:00:38.083Z,54.20
2018-07-10T18:03:07.780Z,54.50
2018-07-10T18:05:37.690Z,54.90
2018-07-10T18:08:08.378Z,55.40
2018-07-10T18:10:40.056Z,55.40
2018-07-10T18:13:10.232Z,55.50
2018-07-10T18:15:40.242Z,55.60
2018-07-10T18:18:10.536Z,55.60
2018-07-10T18:20:40.137Z,55.80
2018-07-10T18:23:11.516Z,56.30
2018-07-10T18:25:41.607Z,56.60
2018-07-10T18:28:11.396Z,57.00
2018-07-10T18:30:41.595Z,57.40
2018-07-10T18:33:11.553Z,57.60
2018-07-10T18:35:41.626Z,57.90
2018-07-10T18:38:12.129Z,58.30
2018-07-10T18:40:42.645Z,58.60
2018-07-10T18:43:13.111Z,59.00
2018-07-10T18:45:42.909Z,59.20
2018-07-10T18:48:12.564Z,59.50
2018-07-10T18:50:43.415Z,59.70
2018-07-10T18:53:13.843Z,59.80
2018-07-10T18:55:44.653Z,60.00
2018-07-10T19:03:10.962Z,60.20
2018-07-10T19:05:49.651Z,60.30
2018-07-10T19:10:54.894Z,59.90
2018-07-10T19:13:35.012Z,60.40
2018-07-10T19:16:05.572Z,60.70
2018-07-10T19:18:39.374Z,60.90
2018-07-10T19:21:23.590Z,61.30
2018-07-10T19:23:54.498Z,61.50
2018-07-10T19:26:27.644Z,61.60
2018-07-10T19:30:12.778Z,61.80
2018-07-10T19:32:42.872Z,62.10
2018-07-10T19:35:12.405Z,61.60
2018-07-10T19:37:44.502Z,62.00
2018-07-10T19:40:14.517Z,62.50
2018-07-10T19:42:44.852Z,62.80
2018-07-10T19:45:15.898Z,63.10
2018-07-10T19:50:19.396Z,63.50
2018-07-10T19:52:55.873Z,63.70
2018-07-10T19:55:29.124Z,63.80
2018-07-10T19:58:11.821Z,63.90
2018-07-10T20:00:51.117Z,64.10
2018-07-10T20:04:04.780Z,64.10
2018-07-10T20:08:46.375Z,64.30
2018-07-10T20:11:28.110Z,64.00
2018-07-10T20:13:57.903Z,63.30
2018-07-10T20:16:51.700Z,63.90
2018-07-10T20:19:32.261Z,64.50
2018-07-10T20:22:18.982Z,64.80
2018-07-10T20:25:34.212Z,65.00
2018-07-10T20:30:59.874Z,65.00
2018-07-10T20:33:40.996Z,65.20
2018-07-10T20:36:11.388Z,65.30
2018-07-10T20:38:41.117Z,65.50
2018-07-10T20:41:10.640Z,65.60
2018-07-10T20:43:45.400Z,65.70
2018-07-10T20:48:57.371Z,66.60
2018-07-10T20:53:44.394Z,66.00
2018-07-10T20:56:54.853Z,65.90
2018-07-10T20:59:34.798Z,65.00
2018-07-10T21:02:08.901Z,65.20
2018-07-10T21:05:02.137Z,65.60
2018-07-10T21:10:27.273Z,66.10
2018-07-10T21:13:09.782Z,66.30
2018-07-10T21:15:55.767Z,66.30
2018-07-10T21:20:44.937Z,66.60
2018-07-10T21:23:33.625Z,66.70
2018-07-10T21:26:22.400Z,65.90
2018-07-10T21:28:55.863Z,66.40
2018-07-10T21:44:47.172Z,66.80
2018-07-10T21:47:34.796Z,64.60
2018-07-10T21:50:06.384Z,65.90
2018-07-10T21:52:36.223Z,66.90
2018-07-10T21:55:05.835Z,67.50
2018-07-10T21:57:41.691Z,68.00
2018-07-10T22:00:11.826Z,68.30
2018-07-10T22:02:41.377Z,68.40
2018-07-10T22:05:10.872Z,68.60
2018-07-10T22:07:41.432Z,68.70
2018-07-10T22:10:10.933Z,68.80
2018-07-10T22:12:46.938Z,69.00
2018-07-10T22:15:16.442Z,69.10
2018-07-10T22:17:46.700Z,69.10
2018-07-10T22:20:17.234Z,69.20
2018-07-10T22:22:46.758Z,69.20
2018-07-10T22:25:16.304Z,69.20
2018-07-10T22:27:45.961Z,69.30
2018-07-10T22:30:21.872Z,69.30
2018-07-10T22:32:57.995Z,69.40
2018-07-10T22:35:27.492Z,69.40
2018-07-10T22:37:57.520Z,69.60
2018-07-10T22:40:27.034Z,69.60
2018-07-10T22:42:56.730Z,69.70
2018-07-10T22:45:27.641Z,69.80
2018-07-10T22:47:57.172Z,69.80
2018-07-10T22:50:26.853Z,69.80
2018-07-10T22:52:59.952Z,69.80
2018-07-10T22:55:31.302Z,69.80
2018-07-10T22:58:07.111Z,69.80
2018-07-10T23:00:38.920Z,70.00
2018-07-10T23:03:24.552Z,70.00
2018-07-10T23:05:54.847Z,70.10
2018-07-10T23:08:36.099Z,70.10
2018-07-10T23:11:08.433Z,70.40
2018-07-10T23:13:40.655Z,70.40
2018-07-10T23:16:10.152Z,70.50
2018-07-10T23:18:40.299Z,70.70
2018-07-10T23:21:15.873Z,70.70
2018-07-10T23:23:45.457Z,70.80
2018-07-10T23:26:16.686Z,70.90
2018-07-10T23:28:51.044Z,71.00
2018-07-10T23:31:20.549Z,71.00
2018-07-10T23:34:23.336Z,71.10
2018-07-10T23:36:55.730Z,71.20
2018-07-10T23:39:37.881Z,71.10
2018-07-10T23:42:42.168Z,71.20
2018-07-10T23:45:42.460Z,71.30
2018-07-10T23:48:12.597Z,71.10
2018-07-10T23:50:42.143Z,71.00
2018-07-10T23:54:15.095Z,71.30
2018-07-10T23:56:44.669Z,71.40
2018-07-10T23:59:14.135Z,71.00
